sensor_id;sensor_type;location;lat;lon;timestamp;pressure;altitude;pressure_sealevel;temperature;humidity
47366;BME280;33105;47.964;7.982;2023-06-24T00:00:41;97515.94;;;15.19;77.35
47366;BME280;33105;47.964;7.982;2023-06-24T00:03:42;97508.22;;;15.06;75.47
47366;BME280;33105;47.964;7.982;2023-06-24T00:06:47;97508.22;;;15.11;76.52
47366;BME280;33105;47.964;7.982;2023-06-24T00:09:48;97512.91;;;15.05;75.04
47366;BME280;33105;47.964;7.982;2023-06-24T00:12:50;97514.28;;;15.03;75.43
47366;BME280;33105;47.964;7.982;2023-06-24T00:15:51;97507.09;;;15.02;74.92
47366;BME280;33105;47.964;7.982;2023-06-24T00:18:55;97507.09;;;15.02;74.97
47366;BME280;33105;47.964;7.982;2023-06-24T00:22:01;97504.31;;;14.86;76.12
47366;BME280;33105;47.964;7.982;2023-06-24T00:25:04;97513.66;;;14.85;76.45
47366;BME280;33105;47.964;7.982;2023-06-24T00:28:06;97508.72;;;14.87;77.12
47366;BME280;33105;47.964;7.982;2023-06-24T00:31:07;97506.78;;;14.83;76.21
47366;BME280;33105;47.964;7.982;2023-06-24T00:34:08;97507.31;;;14.75;76.53
47366;BME280;33105;47.964;7.982;2023-06-24T00:37:10;97507.28;;;14.70;75.87
47366;BME280;33105;47.964;7.982;2023-06-24T00:40:11;97504.84;;;14.78;77.72
47366;BME280;33105;47.964;7.982;2023-06-24T00:43:16;97513.09;;;14.78;76.29
47366;BME280;33105;47.964;7.982;2023-06-24T00:46:17;97515.31;;;14.81;75.90
47366;BME280;33105;47.964;7.982;2023-06-24T00:49:20;97513.66;;;14.85;76.41
47366;BME280;33105;47.964;7.982;2023-06-24T00:52:21;97510.34;;;14.78;76.91
47366;BME280;33105;47.964;7.982;2023-06-24T00:55:23;97513.63;;;14.70;76.34
47366;BME280;33105;47.964;7.982;2023-06-24T00:58:24;97519.09;;;14.65;77.12
47366;BME280;33105;47.964;7.982;2023-06-24T01:01:25;97517.75;;;14.73;77.27
47366;BME280;33105;47.964;7.982;2023-06-24T01:04:28;97518.31;;;14.75;77.53
47366;BME280;33105;47.964;7.982;2023-06-24T01:07:31;97512.25;;;14.73;75.83
47366;BME280;33105;47.964;7.982;2023-06-24T01:10:33;97513.06;;;14.68;76.94
47366;BME280;33105;47.964;7.982;2023-06-24T01:13:34;97508.06;;;14.60;76.81
47366;BME280;33105;47.964;7.982;2023-06-24T01:17:03;97499.81;;;14.50;77.23
47366;BME280;33105;47.964;7.982;2023-06-24T01:20:11;97501.41;;;14.41;78.14
47366;BME280;33105;47.964;7.982;2023-06-24T01:23:20;97512.03;;;14.27;77.87
47366;BME280;33105;47.964;7.982;2023-06-24T01:26:49;97517.50;;;14.22;78.68
47366;BME280;33105;47.964;7.982;2023-06-24T01:33:23;97506.91;;;14.41;77.74
47366;BME280;33105;47.964;7.982;2023-06-24T01:36:27;97501.91;;;14.38;78.07
47366;BME280;33105;47.964;7.982;2023-06-24T01:39:33;97507.97;;;14.35;78.73
47366;BME280;33105;47.964;7.982;2023-06-24T01:42:41;97504.91;;;14.36;78.91
47366;BME280;33105;47.964;7.982;2023-06-24T01:45:45;97509.84;;;14.29;78.92
47366;BME280;33105;47.964;7.982;2023-06-24T01:48:48;97504.81;;;14.16;79.48
47366;BME280;33105;47.964;7.982;2023-06-24T01:51:55;97510.09;;;14.22;79.57
47366;BME280;33105;47.964;7.982;2023-06-24T01:54:58;97507.59;;;14.21;81.57
47366;BME280;33105;47.964;7.982;2023-06-24T01:58:02;97507.31;;;14.17;80.52
47366;BME280;33105;47.964;7.982;2023-06-24T02:01:07;97506.44;;;14.12;79.54
47366;BME280;33105;47.964;7.982;2023-06-24T02:04:09;97502.56;;;14.03;80.95
47366;BME280;33105;47.964;7.982;2023-06-24T02:07:13;97501.72;;;14.02;80.79
47366;BME280;33105;47.964;7.982;2023-06-24T02:10:15;97504.47;;;14.02;81.57
47366;BME280;33105;47.964;7.982;2023-06-24T02:13:18;97505.56;;;14.01;82.00
47366;BME280;33105;47.964;7.982;2023-06-24T02:16:22;97509.41;;;14.00;80.68
47366;BME280;33105;47.964;7.982;2023-06-24T02:19:25;97509.16;;;14.02;82.24
47366;BME280;33105;47.964;7.982;2023-06-24T02:22:30;97506.88;;;13.93;83.35
47366;BME280;33105;47.964;7.982;2023-06-24T02:25:32;97503.28;;;13.88;84.46
47366;BME280;33105;47.964;7.982;2023-06-24T02:28:34;97504.34;;;13.82;84.28
47366;BME280;33105;47.964;7.982;2023-06-24T02:31:37;97506.78;;;13.78;83.94
47366;BME280;33105;47.964;7.982;2023-06-24T02:34:39;97506.22;;;13.76;82.82
47366;BME280;33105;47.964;7.982;2023-06-24T02:37:40;97501.53;;;13.72;82.19
47366;BME280;33105;47.964;7.982;2023-06-24T02:40:43;97507.28;;;13.70;81.97
47366;BME280;33105;47.964;7.982;2023-06-24T02:43:46;97514.63;;;13.59;81.74
47366;BME280;33105;47.964;7.982;2023-06-24T02:46:47;97512.63;;;13.50;82.46
47366;BME280;33105;47.964;7.982;2023-06-24T02:49:50;97505.72;;;13.47;83.18
47366;BME280;33105;47.964;7.982;2023-06-24T02:52:52;97506.22;;;13.39;83.08
47366;BME280;33105;47.964;7.982;2023-06-24T02:55:56;97504.84;;;13.42;83.54
47366;BME280;33105;47.964;7.982;2023-06-24T02:58:58;97506.47;;;13.38;83.95
47366;BME280;33105;47.964;7.982;2023-06-24T03:02:02;97506.25;;;13.44;83.61
47366;BME280;33105;47.964;7.982;2023-06-24T03:05:06;97499.31;;;13.37;83.56
47366;BME280;33105;47.964;7.982;2023-06-24T03:08:08;97504.53;;;13.33;84.26
47366;BME280;33105;47.964;7.982;2023-06-24T03:11:14;97511.69;;;13.34;84.14
47366;BME280;33105;47.964;7.982;2023-06-24T03:14:16;97522.38;;;13.36;83.96
47366;BME280;33105;47.964;7.982;2023-06-24T03:17:18;97522.66;;;13.34;84.11
47366;BME280;33105;47.964;7.982;2023-06-24T03:20:20;97514.09;;;13.31;84.71
47366;BME280;33105;47.964;7.982;2023-06-24T03:23:22;97508.66;;;13.36;83.98
47366;BME280;33105;47.964;7.982;2023-06-24T03:26:24;97515.00;;;13.36;84.22
47366;BME280;33105;47.964;7.982;2023-06-24T03:29:26;97516.63;;;13.37;84.09
47366;BME280;33105;47.964;7.982;2023-06-24T03:32:37;97513.84;;;13.32;84.31
47366;BME280;33105;47.964;7.982;2023-06-24T03:35:38;97523.75;;;13.33;84.50
47366;BME280;33105;47.964;7.982;2023-06-24T03:38:44;97520.94;;;13.28;84.45
47366;BME280;33105;47.964;7.982;2023-06-24T03:41:45;97531.66;;;13.30;84.87
47366;BME280;33105;47.964;7.982;2023-06-24T03:44:49;97528.09;;;13.29;84.92
47366;BME280;33105;47.964;7.982;2023-06-24T03:47:50;97531.41;;;13.31;84.91
47366;BME280;33105;47.964;7.982;2023-06-24T03:50:53;97525.97;;;13.36;85.57
47366;BME280;33105;47.964;7.982;2023-06-24T03:53:57;97526.75;;;13.37;84.87
47366;BME280;33105;47.964;7.982;2023-06-24T03:56:58;97523.22;;;13.36;84.97
47366;BME280;33105;47.964;7.982;2023-06-24T04:00:00;97528.13;;;13.34;85.00
47366;BME280;33105;47.964;7.982;2023-06-24T04:03:01;97526.50;;;13.38;85.22
47366;BME280;33105;47.964;7.982;2023-06-24T04:06:02;97529.28;;;13.43;84.92
47366;BME280;33105;47.964;7.982;2023-06-24T04:09:04;97537.28;;;13.45;84.93
47366;BME280;33105;47.964;7.982;2023-06-24T04:12:07;97541.69;;;13.46;85.78
47366;BME280;33105;47.964;7.982;2023-06-24T04:15:10;97542.25;;;13.48;85.99
47366;BME280;33105;47.964;7.982;2023-06-24T04:18:11;97541.94;;;13.44;86.12
47366;BME280;33105;47.964;7.982;2023-06-24T04:21:13;97542.44;;;13.41;86.63
47366;BME280;33105;47.964;7.982;2023-06-24T04:24:15;97531.47;;;13.41;85.85
47366;BME280;33105;47.964;7.982;2023-06-24T04:27:17;97532.97;;;13.54;86.37
47366;BME280;33105;47.964;7.982;2023-06-24T04:30:18;97540.38;;;13.53;86.64
47366;BME280;33105;47.964;7.982;2023-06-24T04:33:20;97540.44;;;13.58;86.39
47366;BME280;33105;47.964;7.982;2023-06-24T04:36:21;97547.28;;;13.61;85.57
47366;BME280;33105;47.964;7.982;2023-06-24T04:39:23;97549.25;;;13.66;86.69
47366;BME280;33105;47.964;7.982;2023-06-24T04:42:25;97548.41;;;13.65;85.94
47366;BME280;33105;47.964;7.982;2023-06-24T04:45:26;97554.00;;;13.75;85.97
47366;BME280;33105;47.964;7.982;2023-06-24T04:48:28;97551.63;;;13.84;85.57
47366;BME280;33105;47.964;7.982;2023-06-24T04:51:29;97545.03;;;13.85;85.95
47366;BME280;33105;47.964;7.982;2023-06-24T04:54:30;97552.22;;;13.96;86.22
47366;BME280;33105;47.964;7.982;2023-06-24T04:57:32;97550.63;;;14.00;85.80
47366;BME280;33105;47.964;7.982;2023-06-24T05:00:33;97547.34;;;14.03;85.45
47366;BME280;33105;47.964;7.982;2023-06-24T05:03:35;97549.03;;;14.09;86.48
47366;BME280;33105;47.964;7.982;2023-06-24T05:06:36;97553.50;;;14.20;85.51
47366;BME280;33105;47.964;7.982;2023-06-24T05:09:37;97551.34;;;14.27;84.58
47366;BME280;33105;47.964;7.982;2023-06-24T05:12:39;97558.63;;;14.49;83.89
47366;BME280;33105;47.964;7.982;2023-06-24T05:15:40;97549.63;;;14.69;83.30
47366;BME280;33105;47.964;7.982;2023-06-24T05:18:43;97554.75;;;15.07;81.71
47366;BME280;33105;47.964;7.982;2023-06-24T05:21:45;97547.38;;;15.53;79.20
47366;BME280;33105;47.964;7.982;2023-06-24T05:24:47;97536.91;;;16.01;78.18
47366;BME280;33105;47.964;7.982;2023-06-24T05:27:48;97542.16;;;16.03;77.26
47366;BME280;33105;47.964;7.982;2023-06-24T05:30:49;97547.56;;;16.48;73.45
47366;BME280;33105;47.964;7.982;2023-06-24T05:33:51;97550.59;;;16.57;75.85
47366;BME280;33105;47.964;7.982;2023-06-24T05:36:52;97547.81;;;16.57;75.97
47366;BME280;33105;47.964;7.982;2023-06-24T05:39:53;97547.50;;;16.79;76.39
47366;BME280;33105;47.964;7.982;2023-06-24T05:42:55;97543.91;;;16.73;75.75
47366;BME280;33105;47.964;7.982;2023-06-24T05:45:56;97544.69;;;16.84;75.38
47366;BME280;33105;47.964;7.982;2023-06-24T05:48:57;97553.22;;;16.92;76.24
47366;BME280;33105;47.964;7.982;2023-06-24T05:51:58;97550.25;;;16.79;75.43
47366;BME280;33105;47.964;7.982;2023-06-24T05:55:00;97555.97;;;16.87;77.05
47366;BME280;33105;47.964;7.982;2023-06-24T05:58:01;97553.72;;;16.99;78.42
47366;BME280;33105;47.964;7.982;2023-06-24T06:01:03;97558.84;;;17.26;76.21
47366;BME280;33105;47.964;7.982;2023-06-24T06:04:04;97553.91;;;17.57;73.05
47366;BME280;33105;47.964;7.982;2023-06-24T06:07:05;97563.28;;;17.66;75.86
47366;BME280;33105;47.964;7.982;2023-06-24T06:10:07;97558.03;;;17.99;76.15
47366;BME280;33105;47.964;7.982;2023-06-24T06:13:08;97570.72;;;18.05;76.30
47366;BME280;33105;47.964;7.982;2023-06-24T06:16:12;97557.75;;;18.00;76.22
47366;BME280;33105;47.964;7.982;2023-06-24T06:19:13;97554.22;;;17.95;75.14
47366;BME280;33105;47.964;7.982;2023-06-24T06:22:14;97554.34;;;18.09;76.02
47366;BME280;33105;47.964;7.982;2023-06-24T06:25:16;97547.28;;;18.26;77.53
47366;BME280;33105;47.964;7.982;2023-06-24T06:28:17;97544.28;;;18.47;77.53
47366;BME280;33105;47.964;7.982;2023-06-24T06:31:19;97547.28;;;18.26;75.89
47366;BME280;33105;47.964;7.982;2023-06-24T06:34:20;97544.50;;;18.26;74.51
47366;BME280;33105;47.964;7.982;2023-06-24T06:37:26;97548.81;;;18.38;75.94
47366;BME280;33105;47.964;7.982;2023-06-24T06:40:28;97545.59;;;18.54;74.69
47366;BME280;33105;47.964;7.982;2023-06-24T06:43:30;97551.47;;;18.48;74.70
47366;BME280;33105;47.964;7.982;2023-06-24T06:46:34;97550.16;;;18.40;72.71
47366;BME280;33105;47.964;7.982;2023-06-24T06:49:35;97553.97;;;18.73;77.00
47366;BME280;33105;47.964;7.982;2023-06-24T06:52:36;97538.88;;;18.84;71.62
47366;BME280;33105;47.964;7.982;2023-06-24T06:55:39;97541.25;;;18.72;68.66
47366;BME280;33105;47.964;7.982;2023-06-24T06:58:40;97544.25;;;19.18;71.50
47366;BME280;33105;47.964;7.982;2023-06-24T07:01:42;97544.78;;;19.39;72.35
47366;BME280;33105;47.964;7.982;2023-06-24T07:04:43;97543.84;;;19.30;70.84
47366;BME280;33105;47.964;7.982;2023-06-24T07:07:46;97540.81;;;19.26;68.51
47366;BME280;33105;47.964;7.982;2023-06-24T07:10:47;97538.53;;;19.52;67.79
47366;BME280;33105;47.964;7.982;2023-06-24T07:13:48;97532.41;;;19.88;65.33
47366;BME280;33105;47.964;7.982;2023-06-24T07:16:51;97534.56;;;19.91;63.18
47366;BME280;33105;47.964;7.982;2023-06-24T07:19:53;97527.22;;;20.00;65.71
47366;BME280;33105;47.964;7.982;2023-06-24T07:22:54;97519.41;;;20.89;55.81
47366;BME280;33105;47.964;7.982;2023-06-24T07:25:55;97526.59;;;21.04;57.83
47366;BME280;33105;47.964;7.982;2023-06-24T07:28:57;97523.47;;;21.19;55.63
47366;BME280;33105;47.964;7.982;2023-06-24T07:32:02;97504.63;;;21.66;53.60
47366;BME280;33105;47.964;7.982;2023-06-24T07:35:03;97510.78;;;21.77;55.38
47366;BME280;33105;47.964;7.982;2023-06-24T07:38:05;97514.91;;;22.01;52.19
47366;BME280;33105;47.964;7.982;2023-06-24T07:41:06;97512.34;;;22.14;49.61
47366;BME280;33105;47.964;7.982;2023-06-24T07:44:07;97518.81;;;22.23;50.86
47366;BME280;33105;47.964;7.982;2023-06-24T07:47:08;97517.81;;;22.27;47.09
47366;BME280;33105;47.964;7.982;2023-06-24T07:50:09;97514.09;;;22.32;51.01
47366;BME280;33105;47.964;7.982;2023-06-24T07:53:11;97507.94;;;22.52;46.67
47366;BME280;33105;47.964;7.982;2023-06-24T07:56:13;97504.66;;;22.42;49.18
47366;BME280;33105;47.964;7.982;2023-06-24T07:59:14;97500.78;;;22.60;48.77
47366;BME280;33105;47.964;7.982;2023-06-24T08:02:15;97500.50;;;22.70;47.06
47366;BME280;33105;47.964;7.982;2023-06-24T08:05:17;97500.47;;;22.61;51.05
47366;BME280;33105;47.964;7.982;2023-06-24T08:08:22;97504.88;;;22.93;51.02
47366;BME280;33105;47.964;7.982;2023-06-24T08:11:23;97495.72;;;23.10;46.85
47366;BME280;33105;47.964;7.982;2023-06-24T08:14:24;97490.81;;;22.67;51.88
47366;BME280;33105;47.964;7.982;2023-06-24T08:17:25;97488.69;;;23.21;47.04
47366;BME280;33105;47.964;7.982;2023-06-24T08:20:26;97499.75;;;22.87;48.56
47366;BME280;33105;47.964;7.982;2023-06-24T08:23:27;97500.00;;;22.68;48.33
47366;BME280;33105;47.964;7.982;2023-06-24T08:26:29;97488.94;;;22.85;50.03
47366;BME280;33105;47.964;7.982;2023-06-24T08:29:30;97493.28;;;23.17;49.86
47366;BME280;33105;47.964;7.982;2023-06-24T08:32:31;97479.84;;;23.19;49.29
47366;BME280;33105;47.964;7.982;2023-06-24T08:35:32;97481.63;;;23.32;49.08
47366;BME280;33105;47.964;7.982;2023-06-24T08:38:33;97487.88;;;23.21;50.16
47366;BME280;33105;47.964;7.982;2023-06-24T08:41:35;97478.22;;;22.70;50.76
47366;BME280;33105;47.964;7.982;2023-06-24T08:44:36;97480.09;;;22.83;49.69
47366;BME280;33105;47.964;7.982;2023-06-24T08:47:37;97474.75;;;23.38;48.23
47366;BME280;33105;47.964;7.982;2023-06-24T08:50:43;97468.72;;;23.62;43.52
47366;BME280;33105;47.964;7.982;2023-06-24T08:53:47;97482.94;;;23.26;45.18
47366;BME280;33105;47.964;7.982;2023-06-24T08:56:49;97486.75;;;23.39;46.26
47366;BME280;33105;47.964;7.982;2023-06-24T08:59:50;97478.72;;;23.46;47.51
47366;BME280;33105;47.964;7.982;2023-06-24T09:02:51;97468.56;;;23.59;48.90
47366;BME280;33105;47.964;7.982;2023-06-24T09:05:53;97464.03;;;24.18;44.96
47366;BME280;33105;47.964;7.982;2023-06-24T09:08:55;97462.13;;;23.93;43.87
47366;BME280;33105;47.964;7.982;2023-06-24T09:12:00;97455.97;;;24.25;46.06
47366;BME280;33105;47.964;7.982;2023-06-24T09:15:03;97455.16;;;24.63;41.29
47366;BME280;33105;47.964;7.982;2023-06-24T09:18:05;97459.19;;;24.45;40.73
47366;BME280;33105;47.964;7.982;2023-06-24T09:21:07;97455.03;;;24.51;40.95
47366;BME280;33105;47.964;7.982;2023-06-24T09:24:09;97445.28;;;24.27;43.88
47366;BME280;33105;47.964;7.982;2023-06-24T09:27:12;97442.25;;;23.94;41.05
47366;BME280;33105;47.964;7.982;2023-06-24T09:30:21;97443.44;;;24.40;45.47
47366;BME280;33105;47.964;7.982;2023-06-24T09:33:22;97429.53;;;24.61;44.54
47366;BME280;33105;47.964;7.982;2023-06-24T09:36:24;97435.31;;;25.15;42.25
47366;BME280;33105;47.964;7.982;2023-06-24T09:39:26;97431.84;;;24.59;38.71
47366;BME280;33105;47.964;7.982;2023-06-24T09:42:31;97431.31;;;24.36;39.63
47366;BME280;33105;47.964;7.982;2023-06-24T09:45:33;97436.47;;;24.55;40.84
47366;BME280;33105;47.964;7.982;2023-06-24T09:48:34;97430.59;;;24.77;36.48
47366;BME280;33105;47.964;7.982;2023-06-24T09:51:43;97426.75;;;24.61;38.37
47366;BME280;33105;47.964;7.982;2023-06-24T09:54:46;97419.22;;;24.82;37.91
47366;BME280;33105;47.964;7.982;2023-06-24T09:57:51;97420.31;;;25.19;41.01
47366;BME280;33105;47.964;7.982;2023-06-24T10:00:54;97415.88;;;25.39;38.36
47366;BME280;33105;47.964;7.982;2023-06-24T10:03:56;97411.38;;;25.67;37.84
47366;BME280;33105;47.964;7.982;2023-06-24T10:06:57;97413.41;;;25.58;39.98
47366;BME280;33105;47.964;7.982;2023-06-24T10:10:01;97397.66;;;25.87;34.87
47366;BME280;33105;47.964;7.982;2023-06-24T10:13:04;97413.69;;;25.65;38.74
47366;BME280;33105;47.964;7.982;2023-06-24T10:16:05;97396.69;;;25.70;36.99
47366;BME280;33105;47.964;7.982;2023-06-24T10:19:06;97401.78;;;26.01;36.13
47366;BME280;33105;47.964;7.982;2023-06-24T10:22:08;97397.00;;;26.02;37.11
47366;BME280;33105;47.964;7.982;2023-06-24T10:25:11;97390.22;;;25.91;35.54
47366;BME280;33105;47.964;7.982;2023-06-24T10:28:12;97387.81;;;25.68;38.54
47366;BME280;33105;47.964;7.982;2023-06-24T10:31:13;97392.03;;;25.54;37.46
47366;BME280;33105;47.964;7.982;2023-06-24T10:37:37;97375.28;;;25.99;36.36
47366;BME280;33105;47.964;7.982;2023-06-24T10:40:41;97379.63;;;25.63;36.56
47366;BME280;33105;47.964;7.982;2023-06-24T10:43:42;97378.69;;;25.38;37.85
47366;BME280;33105;47.964;7.982;2023-06-24T10:46:53;97368.53;;;25.34;38.74
47366;BME280;33105;47.964;7.982;2023-06-24T10:49:55;97362.53;;;25.77;36.70
47366;BME280;33105;47.964;7.982;2023-06-24T10:52:56;97368.69;;;26.16;38.02
47366;BME280;33105;47.964;7.982;2023-06-24T10:55:58;97361.84;;;26.37;36.17
47366;BME280;33105;47.964;7.982;2023-06-24T10:59:00;97356.56;;;26.60;37.37
47366;BME280;33105;47.964;7.982;2023-06-24T11:02:01;97345.56;;;26.06;38.08
47366;BME280;33105;47.964;7.982;2023-06-24T11:05:03;97348.41;;;26.31;37.40
47366;BME280;33105;47.964;7.982;2023-06-24T11:08:06;97337.28;;;26.10;37.08
47366;BME280;33105;47.964;7.982;2023-06-24T11:11:07;97338.66;;;25.92;37.44
47366;BME280;33105;47.964;7.982;2023-06-24T11:14:08;97336.63;;;25.68;36.19
47366;BME280;33105;47.964;7.982;2023-06-24T11:17:10;97328.38;;;25.71;34.74
47366;BME280;33105;47.964;7.982;2023-06-24T11:20:12;97318.38;;;25.95;35.82
47366;BME280;33105;47.964;7.982;2023-06-24T11:23:14;97320.59;;;26.14;38.25
47366;BME280;33105;47.964;7.982;2023-06-24T11:26:15;97310.97;;;26.75;32.98
47366;BME280;33105;47.964;7.982;2023-06-24T11:29:16;97307.97;;;26.68;38.10
47366;BME280;33105;47.964;7.982;2023-06-24T11:32:18;97324.16;;;26.87;35.33
47366;BME280;33105;47.964;7.982;2023-06-24T11:35:19;97312.84;;;26.84;36.10
47366;BME280;33105;47.964;7.982;2023-06-24T11:38:24;97310.75;;;26.81;37.34
47366;BME280;33105;47.964;7.982;2023-06-24T11:41:32;97297.03;;;27.31;34.03
47366;BME280;33105;47.964;7.982;2023-06-24T11:44:34;97303.69;;;27.39;34.29
47366;BME280;33105;47.964;7.982;2023-06-24T11:47:36;97294.91;;;27.40;35.59
47366;BME280;33105;47.964;7.982;2023-06-24T11:50:38;97296.34;;;27.50;34.24
47366;BME280;33105;47.964;7.982;2023-06-24T11:53:45;97287.75;;;27.43;38.27
47366;BME280;33105;47.964;7.982;2023-06-24T11:56:56;97279.22;;;27.67;36.02
47366;BME280;33105;47.964;7.982;2023-06-24T11:59:57;97283.31;;;27.86;37.55
47366;BME280;33105;47.964;7.982;2023-06-24T12:03:01;97279.97;;;27.52;33.90
47366;BME280;33105;47.964;7.982;2023-06-24T12:06:02;97285.75;;;26.75;34.42
47366;BME280;33105;47.964;7.982;2023-06-24T12:09:03;97284.19;;;27.02;37.92
47366;BME280;33105;47.964;7.982;2023-06-24T12:12:05;97278.72;;;26.94;35.83
47366;BME280;33105;47.964;7.982;2023-06-24T12:15:07;97269.91;;;27.07;35.29
47366;BME280;33105;47.964;7.982;2023-06-24T12:18:09;97259.19;;;27.25;39.19
47366;BME280;33105;47.964;7.982;2023-06-24T12:21:10;97260.53;;;27.43;33.43
47366;BME280;33105;47.964;7.982;2023-06-24T12:24:11;97255.56;;;27.25;35.14
47366;BME280;33105;47.964;7.982;2023-06-24T12:27:14;97263.31;;;26.88;35.04
47366;BME280;33105;47.964;7.982;2023-06-24T12:30:15;97251.38;;;26.91;34.80
47366;BME280;33105;47.964;7.982;2023-06-24T12:33:21;97243.13;;;27.38;34.21
47366;BME280;33105;47.964;7.982;2023-06-24T12:36:23;97243.81;;;27.19;34.36
47366;BME280;33105;47.964;7.982;2023-06-24T12:39:25;97250.94;;;27.17;34.03
47366;BME280;33105;47.964;7.982;2023-06-24T12:42:26;97242.28;;;26.82;33.61
47366;BME280;33105;47.964;7.982;2023-06-24T12:45:28;97243.06;;;26.66;35.12
47366;BME280;33105;47.964;7.982;2023-06-24T12:48:29;97240.50;;;26.61;33.50
47366;BME280;33105;47.964;7.982;2023-06-24T12:51:30;97225.94;;;26.84;35.48
47366;BME280;33105;47.964;7.982;2023-06-24T12:54:31;97223.59;;;26.86;32.24
47366;BME280;33105;47.964;7.982;2023-06-24T12:57:33;97227.75;;;26.64;34.15
47366;BME280;33105;47.964;7.982;2023-06-24T13:00:34;97225.22;;;26.87;34.58
47366;BME280;33105;47.964;7.982;2023-06-24T13:03:35;97231.53;;;26.84;32.85
47366;BME280;33105;47.964;7.982;2023-06-24T13:06:37;97224.56;;;26.77;33.45
47366;BME280;33105;47.964;7.982;2023-06-24T13:09:38;97216.16;;;27.05;33.22
47366;BME280;33105;47.964;7.982;2023-06-24T13:12:39;97213.06;;;27.54;37.58
47366;BME280;33105;47.964;7.982;2023-06-24T13:15:41;97207.56;;;27.73;29.81
47366;BME280;33105;47.964;7.982;2023-06-24T13:18:42;97211.66;;;26.89;32.18
47366;BME280;33105;47.964;7.982;2023-06-24T13:21:43;97205.81;;;26.94;33.17
47366;BME280;33105;47.964;7.982;2023-06-24T13:24:45;97206.97;;;26.93;35.63
47366;BME280;33105;47.964;7.982;2023-06-24T13:27:46;97198.47;;;26.89;35.21
47366;BME280;33105;47.964;7.982;2023-06-24T13:30:47;97191.34;;;27.35;34.43
47366;BME280;33105;47.964;7.982;2023-06-24T13:33:48;97199.41;;;27.37;33.48
47366;BME280;33105;47.964;7.982;2023-06-24T13:36:50;97193.56;;;27.58;33.75
47366;BME280;33105;47.964;7.982;2023-06-24T13:39:51;97194.06;;;27.32;32.15
47366;BME280;33105;47.964;7.982;2023-06-24T13:42:52;97187.31;;;27.64;31.77
47366;BME280;33105;47.964;7.982;2023-06-24T13:45:54;97188.25;;;27.25;33.05
47366;BME280;33105;47.964;7.982;2023-06-24T13:48:55;97183.44;;;27.09;32.58
47366;BME280;33105;47.964;7.982;2023-06-24T13:51:57;97181.91;;;27.28;31.70
47366;BME280;33105;47.964;7.982;2023-06-24T13:54:58;97184.72;;;27.28;35.79
47366;BME280;33105;47.964;7.982;2023-06-24T13:58:00;97175.19;;;27.01;31.60
47366;BME280;33105;47.964;7.982;2023-06-24T14:01:01;97167.38;;;26.94;32.61
47366;BME280;33105;47.964;7.982;2023-06-24T14:04:02;97172.94;;;27.06;31.10
47366;BME280;33105;47.964;7.982;2023-06-24T14:07:04;97172.47;;;27.04;34.36
47366;BME280;33105;47.964;7.982;2023-06-24T14:10:06;97167.63;;;26.89;33.19
47366;BME280;33105;47.964;7.982;2023-06-24T14:13:07;97165.63;;;27.18;32.70
47366;BME280;33105;47.964;7.982;2023-06-24T14:16:09;97165.34;;;27.23;31.69
47366;BME280;33105;47.964;7.982;2023-06-24T14:19:20;97165.78;;;27.09;30.78
47366;BME280;33105;47.964;7.982;2023-06-24T14:22:26;97161.44;;;26.96;33.66
47366;BME280;33105;47.964;7.982;2023-06-24T14:25:27;97162.06;;;27.05;34.10
47366;BME280;33105;47.964;7.982;2023-06-24T14:28:32;97156.66;;;27.28;31.74
47366;BME280;33105;47.964;7.982;2023-06-24T14:31:33;97148.25;;;27.28;31.96
47366;BME280;33105;47.964;7.982;2023-06-24T14:34:34;97141.50;;;27.60;37.24
47366;BME280;33105;47.964;7.982;2023-06-24T14:37:36;97131.44;;;27.59;31.53
47366;BME280;33105;47.964;7.982;2023-06-24T14:40:37;97130.88;;;27.38;31.53
47366;BME280;33105;47.964;7.982;2023-06-24T14:43:38;97125.28;;;27.38;33.20
47366;BME280;33105;47.964;7.982;2023-06-24T14:46:40;97127.63;;;27.36;34.56
47366;BME280;33105;47.964;7.982;2023-06-24T14:49:41;97129.53;;;27.32;32.11
47366;BME280;33105;47.964;7.982;2023-06-24T14:52:42;97119.72;;;27.73;31.10
47366;BME280;33105;47.964;7.982;2023-06-24T14:55:44;97116.84;;;27.22;31.54
47366;BME280;33105;47.964;7.982;2023-06-24T14:58:45;97112.25;;;27.14;32.44
47366;BME280;33105;47.964;7.982;2023-06-24T15:01:46;97112.25;;;27.14;32.05
47366;BME280;33105;47.964;7.982;2023-06-24T15:04:48;97110.69;;;27.32;31.97
47366;BME280;33105;47.964;7.982;2023-06-24T15:07:50;97110.97;;;27.12;31.58
47366;BME280;33105;47.964;7.982;2023-06-24T15:10:51;97107.81;;;26.97;32.75
47366;BME280;33105;47.964;7.982;2023-06-24T15:13:53;97101.31;;;26.81;31.77
47366;BME280;33105;47.964;7.982;2023-06-24T15:16:54;97104.94;;;26.82;32.16
47366;BME280;33105;47.964;7.982;2023-06-24T15:19:59;97097.75;;;26.96;32.01
47366;BME280;33105;47.964;7.982;2023-06-24T15:23:00;97093.34;;;26.83;32.80
47366;BME280;33105;47.964;7.982;2023-06-24T15:26:01;97089.88;;;27.02;31.93
47366;BME280;33105;47.964;7.982;2023-06-24T15:29:03;97086.44;;;27.08;31.35
47366;BME280;33105;47.964;7.982;2023-06-24T15:32:06;97086.44;;;27.08;32.07
47366;BME280;33105;47.964;7.982;2023-06-24T15:35:07;97083.03;;;27.15;30.91
47366;BME280;33105;47.964;7.982;2023-06-24T15:38:09;97086.34;;;27.05;31.20
47366;BME280;33105;47.964;7.982;2023-06-24T15:41:11;97092.69;;;27.18;31.98
47366;BME280;33105;47.964;7.982;2023-06-24T15:44:13;97096.19;;;26.99;31.68
47366;BME280;33105;47.964;7.982;2023-06-24T15:47:16;97082.78;;;26.92;30.90
47366;BME280;33105;47.964;7.982;2023-06-24T15:50:17;97085.88;;;26.87;31.17
47366;BME280;33105;47.964;7.982;2023-06-24T15:53:19;97081.97;;;26.92;31.89
47366;BME280;33105;47.964;7.982;2023-06-24T15:56:22;97079.75;;;27.29;34.52
47366;BME280;33105;47.964;7.982;2023-06-24T15:59:25;97074.97;;;27.14;32.70
47366;BME280;33105;47.964;7.982;2023-06-24T16:02:28;97068.63;;;27.01;30.23
47366;BME280;33105;47.964;7.982;2023-06-24T16:05:32;97063.16;;;26.92;32.39
47366;BME280;33105;47.964;7.982;2023-06-24T16:08:36;97061.66;;;26.95;32.78
47366;BME280;33105;47.964;7.982;2023-06-24T16:11:37;97060.00;;;26.94;30.40